createdAt,value
2022-08-25T00:02:55.600Z,4.20
2022-08-25T00:07:59.827Z,4.07
2022-08-25T00:13:04.090Z,4.17
2022-08-25T00:18:11.526Z,4.00
2022-08-25T00:23:22.941Z,3.67
2022-08-25T00:28:25.944Z,3.47
2022-08-25T00:33:31.548Z,4.00
2022-08-25T00:38:34.420Z,3.97
2022-08-25T00:43:47.821Z,4.00
2022-08-25T00:49:01.825Z,4.03
2022-08-25T00:54:06.237Z,3.50
2022-08-25T00:59:09.393Z,3.92
2022-08-25T01:04:12.233Z,4.50
2022-08-25T01:09:15.869Z,3.90
2022-08-25T01:14:21.125Z,4.03
2022-08-25T01:19:25.484Z,3.90
2022-08-25T01:24:53.828Z,3.85
2022-08-25T01:29:58.340Z,4.53
2022-08-25T01:35:01.067Z,5.03
2022-08-25T01:40:06.041Z,4.63
2022-08-25T01:45:10.528Z,4.23
2022-08-25T01:50:13.385Z,4.78
2022-08-25T01:55:16.188Z,4.83
2022-08-25T02:00:21.024Z,4.47
2022-08-25T02:05:24.011Z,5.55
2022-08-25T02:10:26.714Z,5.83
2022-08-25T02:15:29.582Z,5.90
2022-08-25T02:20:32.408Z,6.00
2022-08-25T02:25:35.274Z,5.60
2022-08-25T02:30:40.918Z,5.22
2022-08-25T02:35:43.755Z,5.00
2022-08-25T02:40:50.944Z,5.60
2022-08-25T02:45:56.617Z,5.20
2022-08-25T02:51:02.243Z,4.97
2022-08-25T02:56:05.127Z,4.60
2022-08-25T03:01:12.084Z,4.77
2022-08-25T03:06:17.773Z,5.40
2022-08-25T03:11:21.260Z,4.53
2022-08-25T03:16:27.632Z,4.50
2022-08-25T03:21:31.158Z,4.60
2022-08-25T03:26:52.528Z,4.90
2022-08-25T03:31:58.481Z,4.60
2022-08-25T03:37:01.311Z,4.20
2022-08-25T03:42:04.948Z,4.13
2022-08-25T03:47:07.728Z,5.03
2022-08-25T03:52:10.729Z,4.17
2022-08-25T03:57:13.602Z,4.50
2022-08-25T04:02:18.092Z,4.23
2022-08-25T04:07:20.887Z,3.90
2022-08-25T04:12:24.328Z,4.50
2022-08-25T04:17:27.320Z,4.40
2022-08-25T04:22:31.317Z,4.38
2022-08-25T04:27:36.985Z,4.70
2022-08-25T04:32:39.989Z,5.55
2022-08-25T04:37:43.017Z,4.80
2022-08-25T04:42:48.099Z,5.13
2022-08-25T04:47:54.824Z,5.03
2022-08-25T04:52:58.259Z,4.90
2022-08-25T04:58:01.018Z,5.05
2022-08-25T05:03:05.385Z,5.38
2022-08-25T05:08:08.190Z,5.33
2022-08-25T05:13:11.089Z,5.40
2022-08-25T05:18:14.133Z,4.43
2022-08-25T05:23:17.403Z,5.32
2022-08-25T05:28:21.368Z,5.35
2022-08-25T05:33:24.330Z,6.13
2022-08-25T05:38:28.081Z,5.70
2022-08-25T05:43:31.599Z,5.83
2022-08-25T05:48:35.422Z,6.07
2022-08-25T05:53:40.270Z,6.00
2022-08-25T05:58:44.539Z,5.07
2022-08-25T06:03:48.037Z,6.10
2022-08-25T06:08:51.790Z,5.30
2022-08-25T06:13:54.714Z,5.47
2022-08-25T06:18:57.620Z,5.82
2022-08-25T06:24:00.890Z,5.20
2022-08-25T06:29:05.239Z,5.47
2022-08-25T06:34:08.194Z,5.23
2022-08-25T06:39:12.031Z,5.05
2022-08-25T06:44:15.019Z,5.63
2022-08-25T06:49:18.078Z,4.77
2022-08-25T06:54:21.235Z,5.45
2022-08-25T06:59:24.144Z,5.47
2022-08-25T07:04:34.744Z,4.80
2022-08-25T07:09:39.233Z,4.53
2022-08-25T07:14:44.257Z,5.00
2022-08-25T07:19:57.448Z,5.30
2022-08-25T07:25:00.793Z,5.40
2022-08-25T07:30:06.351Z,4.85
2022-08-25T07:35:15.922Z,6.38
2022-08-25T07:40:32.410Z,5.17
2022-08-25T07:45:46.843Z,5.30
2022-08-25T07:50:53.158Z,5.47
2022-08-25T07:55:56.076Z,5.68
2022-08-25T08:00:59.430Z,5.22
2022-08-25T08:06:07.541Z,5.00
2022-08-25T08:11:20.310Z,6.07
2022-08-25T08:16:28.261Z,5.50
2022-08-25T08:21:33.812Z,6.03
2022-08-25T08:26:57.775Z,5.35
2022-08-25T08:32:00.403Z,6.50
2022-08-25T08:37:04.220Z,5.47
2022-08-25T08:42:46.708Z,6.20
2022-08-25T08:48:10.507Z,5.70
2022-08-25T08:53:27.748Z,5.18
2022-08-25T08:58:39.975Z,5.90
2022-08-25T09:03:55.233Z,5.32
2022-08-25T09:09:00.126Z,6.23
2022-08-25T09:14:19.348Z,5.38
2022-08-25T09:19:55.705Z,5.35
2022-08-25T09:25:29.397Z,5.60
2022-08-25T09:31:03.508Z,5.57
2022-08-25T09:36:09.045Z,5.90
2022-08-25T09:41:17.859Z,6.15
2022-08-25T09:46:32.273Z,6.25
2022-08-25T09:51:42.824Z,7.10
2022-08-25T09:56:55.105Z,6.80
2022-08-25T10:02:00.342Z,7.73
2022-08-25T10:07:19.199Z,7.03
2022-08-25T10:12:34.992Z,7.10
2022-08-25T10:17:37.896Z,7.30
2022-08-25T10:22:44.590Z,7.82
2022-08-25T10:28:13.179Z,6.37
2022-08-25T10:33:35.612Z,6.30
2022-08-25T10:38:52.221Z,6.57
2022-08-25T10:44:01.024Z,6.47
2022-08-25T10:49:13.101Z,6.82
2022-08-25T10:54:24.400Z,7.03
2022-08-25T11:00:00.275Z,7.45
2022-08-25T11:05:26.910Z,6.43
2022-08-25T11:10:59.000Z,6.10
2022-08-25T11:16:18.759Z,6.05
2022-08-25T11:21:46.794Z,5.33
2022-08-25T11:26:56.532Z,6.47
2022-08-25T11:32:01.411Z,5.18
2022-08-25T11:37:14.298Z,5.90
2022-08-25T11:42:35.393Z,4.93
2022-08-25T11:48:16.194Z,4.80
2022-08-25T11:53:42.127Z,5.60
2022-08-25T11:58:52.120Z,5.10
2022-08-25T12:04:30.905Z,5.17
2022-08-25T12:09:54.877Z,5.85
2022-08-25T12:15:23.968Z,5.37
2022-08-25T12:20:55.663Z,5.05
2022-08-25T12:26:29.312Z,5.65
2022-08-25T12:31:59.113Z,5.07
2022-08-25T12:37:19.722Z,5.47
2022-08-25T12:42:26.288Z,5.70
2022-08-25T12:47:34.487Z,5.20
2022-08-25T12:52:38.749Z,5.20
2022-08-25T12:57:52.210Z,6.37
2022-08-25T13:03:12.667Z,5.88
2022-08-25T13:08:56.111Z,5.07
2022-08-25T13:14:20.501Z,5.00
2022-08-25T13:19:25.951Z,4.70
2022-08-25T13:24:40.674Z,5.00
2022-08-25T13:29:56.004Z,4.82
2022-08-25T13:35:32.524Z,5.13
2022-08-25T13:40:36.841Z,5.47
2022-08-25T13:45:46.825Z,5.55
2022-08-25T13:50:52.106Z,4.60
2022-08-25T13:56:02.188Z,5.05
2022-08-25T14:01:48.290Z,4.67
2022-08-25T14:07:21.799Z,5.00
2022-08-25T14:12:40.300Z,4.75
2022-08-25T14:22:54.739Z,4.30
2022-08-25T14:28:08.320Z,4.50
2022-08-25T14:33:12.620Z,4.93
2022-08-25T14:38:17.270Z,4.70
2022-08-25T14:43:23.836Z,4.33
2022-08-25T14:48:30.468Z,4.95
2022-08-25T14:53:33.978Z,5.27
2022-08-25T14:58:51.053Z,5.35
2022-08-25T15:04:05.231Z,4.97
2022-08-25T15:09:16.721Z,5.20
2022-08-25T15:14:28.583Z,4.80
2022-08-25T15:19:36.029Z,5.37
2022-08-25T15:24:39.911Z,5.03
2022-08-25T15:29:43.090Z,4.85
2022-08-25T15:34:47.610Z,4.83
2022-08-25T15:39:50.597Z,5.38
2022-08-25T15:44:54.442Z,4.97
2022-08-25T15:50:10.240Z,4.95
2022-08-25T15:55:13.689Z,5.50
2022-08-25T16:00:17.858Z,5.53
2022-08-25T16:05:25.902Z,5.20
2022-08-25T16:10:29.108Z,5.43
2022-08-25T16:15:32.660Z,5.88
2022-08-25T16:20:37.242Z,5.95
2022-08-25T16:25:46.525Z,5.43
2022-08-25T16:30:52.619Z,6.07
2022-08-25T16:36:15.609Z,6.00
2022-08-25T16:41:27.449Z,6.15
2022-08-25T16:46:30.720Z,5.65
2022-08-25T16:51:38.680Z,6.40
2022-08-25T16:56:42.939Z,6.60
2022-08-25T17:01:46.073Z,6.30
2022-08-25T17:06:52.161Z,6.18
2022-08-25T17:11:57.089Z,7.03
2022-08-25T17:16:59.992Z,7.10
2022-08-25T17:22:03.630Z,7.00
2022-08-25T17:27:09.961Z,6.90
2022-08-25T17:32:14.010Z,6.53
2022-08-25T17:37:17.159Z,7.30
2022-08-25T17:42:21.174Z,6.77
2022-08-25T17:47:24.130Z,6.85
2022-08-25T17:52:27.609Z,8.57
2022-08-25T17:57:32.424Z,9.32
2022-08-25T18:02:36.049Z,9.20
2022-08-25T18:07:41.574Z,8.63
2022-08-25T18:12:46.862Z,8.65
2022-08-25T18:17:49.897Z,7.70
2022-08-25T18:22:58.697Z,7.60
2022-08-25T18:28:01.946Z,8.65
2022-08-25T18:33:06.499Z,8.23
2022-08-25T18:38:27.811Z,9.25
2022-08-25T18:43:34.018Z,8.90
2022-08-25T18:48:37.384Z,9.07
2022-08-25T18:53:50.366Z,8.70
2022-08-25T18:58:54.297Z,7.77
2022-08-25T19:03:57.841Z,7.25
2022-08-25T19:09:00.929Z,8.33
2022-08-25T19:14:03.760Z,7.82
2022-08-25T19:19:15.208Z,7.85
2022-08-25T19:24:19.120Z,7.47
2022-08-25T19:29:23.751Z,7.85
2022-08-25T19:34:31.250Z,7.63
2022-08-25T19:39:35.638Z,8.02
2022-08-25T19:44:42.401Z,7.85
2022-08-25T19:49:45.189Z,8.07
2022-08-25T19:54:48.365Z,7.75
2022-08-25T19:59:51.619Z,7.30
2022-08-25T20:04:57.229Z,6.93
2022-08-25T20:10:01.259Z,7.40
2022-08-25T20:15:05.780Z,7.30
2022-08-25T20:20:12.050Z,7.05
2022-08-25T20:25:27.004Z,7.60
2022-08-25T20:30:39.303Z,7.10
2022-08-25T20:35:47.540Z,6.82
2022-08-25T20:40:50.306Z,7.00
2022-08-25T20:46:04.686Z,7.55
2022-08-25T20:51:09.038Z,7.07
2022-08-25T20:56:15.448Z,7.07
2022-08-25T21:01:23.086Z,7.53
2022-08-25T21:06:26.091Z,7.47
2022-08-25T21:11:29.738Z,8.00
2022-08-25T21:16:33.264Z,8.17
2022-08-25T21:21:38.689Z,8.55
2022-08-25T21:26:48.745Z,7.93
2022-08-25T21:31:52.410Z,7.53
2022-08-25T21:36:58.192Z,8.02
2022-08-25T21:42:02.208Z,8.80
2022-08-25T21:47:05.980Z,7.38
2022-08-25T21:52:09.609Z,7.55
2022-08-25T21:57:13.071Z,7.93
2022-08-25T22:02:20.492Z,8.07
2022-08-25T22:07:25.379Z,8.30
2022-08-25T22:12:28.350Z,8.00
2022-08-25T22:17:31.199Z,7.80
2022-08-25T22:22:34.191Z,7.80
2022-08-25T22:27:37.560Z,8.65
2022-08-25T22:32:41.534Z,8.67
2022-08-25T22:37:44.387Z,9.25
2022-08-25T22:42:48.177Z,9.15
2022-08-25T22:47:52.481Z,9.07
2022-08-25T22:52:55.754Z,8.70
2022-08-25T22:57:58.896Z,8.83
2022-08-25T23:03:03.538Z,8.75
2022-08-25T23:08:09.568Z,8.20
2022-08-25T23:13:12.667Z,8.37
2022-08-25T23:18:39.489Z,8.20
2022-08-25T23:23:44.665Z,8.20
2022-08-25T23:28:48.199Z,9.32
2022-08-25T23:33:52.344Z,8.23
2022-08-25T23:38:55.889Z,8.47
2022-08-25T23:43:58.688Z,8.93
2022-08-25T23:49:02.099Z,8.60
2022-08-25T23:54:09.592Z,8.60
2022-08-25T23:59:14.980Z,8.82
